Time;durP1;ratioP1;P1;durP2;ratioP2;P2;SDS_P1;SDS_P2;PMS_P1;PMS_P2;Temp;Humidity;BMP_temperature;BMP_pressure;BME280_temperature;BME280_humidity;BME280_pressure;Samples;Min_cycle;Max_cycle;Signal;HPM_P1;HPM_P2
2023/05/25 00:02:14;;;;;;;1.52;0.88;;;;;;;12.43;69.36;102720.06;5098613;27;96506;-28
2023/05/25 00:04:40;;;;;;;1.92;0.90;;;;;;;12.42;69.33;102714.69;5080603;27;96844;-28
2023/05/25 00:07:05;;;;;;;2.10;0.90;;;;;;;12.38;69.05;102710.34;5079586;27;100079;-29
2023/05/25 00:09:31;;;;;;;2.40;1.10;;;;;;;12.36;70.01;102718.53;5098404;27;97735;-28
2023/05/25 00:11:58;;;;;;;0.90;0.80;;;;;;;12.32;69.90;102708.72;5098007;27;96719;-28
2023/05/25 00:14:24;;;;;;;4.97;1.25;;;;;;;12.33;69.27;102711.41;5079884;27;96794;-28
2023/05/25 00:16:50;;;;;;;4.65;0.90;;;;;;;12.36;70.03;102717.66;5096830;27;99250;-28
2023/05/25 00:19:17;;;;;;;6.88;1.08;;;;;;;12.27;69.35;102711.63;5079482;27;100867;-29
2023/05/25 00:21:44;;;;;;;2.50;1.05;;;;;;;12.35;69.93;102718.59;5079810;27;96684;-28
2023/05/25 00:24:10;;;;;;;2.20;1.00;;;;;;;12.33;70.03;102722.28;5079927;27;96994;-28
2023/05/25 00:26:36;;;;;;;1.30;0.63;;;;;;;12.28;70.99;102716.13;5098119;27;98501;-29
2023/05/25 00:29:02;;;;;;;7.15;1.38;;;;;;;12.24;70.07;102719.91;5098347;27;99081;-28
2023/05/25 00:31:28;;;;;;;1.88;0.82;;;;;;;12.21;69.58;102711.88;5079479;27;96757;-28
2023/05/25 00:33:54;;;;;;;1.30;0.77;;;;;;;12.21;69.86;102717.31;5097561;27;97019;-28
2023/05/25 00:36:19;;;;;;;5.55;1.10;;;;;;;12.17;71.12;102712.94;5097235;27;99329;-28
2023/05/25 00:38:45;;;;;;;2.97;1.27;;;;;;;12.10;70.81;102708.69;5098063;27;97870;-30
2023/05/25 00:41:15;;;;;;;3.67;0.98;;;;;;;12.11;70.42;102710.47;5098160;27;96586;-28
2023/05/25 00:43:41;;;;;;;3.35;1.35;;;;;;;12.13;71.28;102716.69;5079496;27;96666;-28
2023/05/25 00:46:08;;;;;;;4.35;1.40;;;;;;;12.08;70.98;102707.84;5097103;27;113598;-29
2023/05/25 00:48:34;;;;;;;2.22;1.00;;;;;;;12.05;72.12;102713.41;5079107;27;100681;-29
2023/05/25 00:50:59;;;;;;;2.22;1.02;;;;;;;12.08;71.44;102713.28;5098242;27;96737;-29
2023/05/25 00:53:25;;;;;;;4.22;1.02;;;;;;;12.08;71.00;102719.63;5098558;27;96757;-29
2023/05/25 00:56:16;;;;;;;2.92;1.10;;;;;;;12.06;72.39;102723.31;5079100;27;97909;-28
2023/05/25 00:58:43;;;;;;;2.85;1.05;;;;;;;12.01;71.63;102723.53;5097483;27;99186;-28
2023/05/25 01:01:13;;;;;;;3.65;1.27;;;;;;;12.04;71.56;102726.09;5097390;27;96571;-28
2023/05/25 01:03:44;;;;;;;3.08;1.23;;;;;;;12.00;71.54;102723.56;5079288;27;96662;-29
2023/05/25 01:06:15;;;;;;;2.95;1.15;;;;;;;11.98;72.43;102720.00;5078982;27;100807;-29
2023/05/25 01:08:46;;;;;;;3.90;1.05;;;;;;;12.06;71.54;102734.19;5078709;27;100802;-28
2023/05/25 01:11:13;;;;;;;4.70;1.88;;;;;;;12.05;71.50;102727.00;5079155;27;96759;-28
2023/05/25 01:13:40;;;;;;;2.10;0.93;;;;;;;12.07;71.74;102733.25;5078760;27;96817;-28
2023/05/25 01:16:07;;;;;;;5.40;1.08;;;;;;;12.06;72.31;102736.91;5097391;27;98102;-29
2023/05/25 01:18:33;;;;;;;2.80;1.10;;;;;;;12.00;71.77;102731.72;5078887;27;101071;-30
2023/05/25 01:21:13;;;;;;;5.47;1.48;;;;;;;11.99;73.48;102741.69;5097570;27;96606;-28
2023/05/25 01:23:54;;;;;;;2.58;1.42;;;;;;;11.97;73.33;102742.69;5078971;27;96711;-29
2023/05/25 01:26:22;;;;;;;3.08;1.20;;;;;;;11.93;72.17;102732.88;5078081;27;101243;-29
2023/05/25 01:28:53;;;;;;;3.17;1.50;;;;;;;11.96;72.82;102743.63;5078169;27;101533;-28
2023/05/25 01:31:22;;;;;;;2.60;1.30;;;;;;;11.91;73.37;102741.06;5078804;27;96588;-29
2023/05/25 01:33:52;;;;;;;3.20;1.20;;;;;;;11.93;72.91;102746.47;5078139;27;96850;-28
2023/05/25 01:36:18;;;;;;;1.88;1.05;;;;;;;11.94;72.89;102748.22;5078410;27;100813;-28
2023/05/25 01:38:44;;;;;;;2.33;1.30;;;;;;;11.93;72.95;102749.19;5078334;27;101044;-28
2023/05/25 01:41:09;;;;;;;7.00;1.80;;;;;;;11.87;73.37;102742.16;5097097;27;96590;-29
2023/05/25 01:43:34;;;;;;;5.90;1.17;;;;;;;11.85;73.26;102744.00;5097343;27;96925;-30
2023/05/25 01:46:21;;;;;;;6.22;1.63;;;;;;;11.91;73.33;102757.38;5096645;27;99469;-28
2023/05/25 01:49:07;;;;;;;2.88;1.33;;;;;;;11.89;73.23;102749.31;5078112;27;100970;-28
2023/05/25 01:51:41;;;;;;;1.67;1.15;;;;;;;11.87;73.38;102755.72;5096768;27;96552;-28
2023/05/25 01:54:18;;;;;;;4.55;1.88;;;;;;;11.80;73.35;102752.31;5078493;27;96707;-29
2023/05/25 01:56:47;;;;;;;2.38;1.23;;;;;;;11.80;73.04;102760.47;5078062;27;100876;-29
2023/05/25 01:59:15;;;;;;;3.75;1.42;;;;;;;11.79;73.75;102750.53;5096639;27;97837;-29
2023/05/25 02:01:41;;;;;;;4.38;1.30;;;;;;;11.79;74.10;102763.22;5078086;27;96737;-28
2023/05/25 02:04:07;;;;;;;3.80;1.30;;;;;;;11.76;73.80;102756.06;5078425;27;96828;-28
2023/05/25 02:06:35;;;;;;;3.75;1.48;;;;;;;11.75;74.06;102759.75;5078036;27;99219;-29
2023/05/25 02:09:00;;;;;;;4.43;1.83;;;;;;;11.72;74.95;102762.53;5078226;27;101373;-28
2023/05/25 02:11:26;;;;;;;3.28;1.33;;;;;;;11.65;74.96;102756.44;5096565;27;96543;-28
2023/05/25 02:13:51;;;;;;;3.53;1.63;;;;;;;11.69;74.59;102766.25;5096565;27;96838;-28
2023/05/25 02:16:17;;;;;;;4.18;1.83;;;;;;;11.68;75.01;102763.63;5095696;27;97398;-28
2023/05/25 02:18:43;;;;;;;7.18;1.50;;;;;;;11.65;74.74;102761.88;5096345;27;98448;-28
2023/05/25 02:21:09;;;;;;;3.88;1.50;;;;;;;11.60;74.63;102752.13;5096618;27;96655;-29
2023/05/25 02:23:34;;;;;;;2.35;1.30;;;;;;;11.65;75.10;102769.13;5078116;27;96969;-28
2023/05/25 02:26:00;;;;;;;4.15;1.50;;;;;;;11.60;75.01;102758.44;5096586;27;97432;-29
2023/05/25 02:28:25;;;;;;;2.65;1.45;;;;;;;11.55;74.67;102762.25;5095982;27;99211;-28
2023/05/25 02:30:50;;;;;;;5.15;1.60;;;;;;;11.53;75.58;102766.84;5096142;27;96649;-28
2023/05/25 02:33:17;;;;;;;7.88;1.38;;;;;;;11.50;75.36;102761.53;5096626;27;96754;-28
2023/05/25 02:35:43;;;;;;;5.25;1.35;;;;;;;11.50;75.37;102758.81;5076924;27;101014;-28
2023/05/25 02:38:08;;;;;;;2.47;1.60;;;;;;;11.49;75.62;102760.66;5096318;27;98002;-28
2023/05/25 02:40:33;;;;;;;3.65;1.90;;;;;;;11.54;75.68;102768.63;5094927;27;96836;-28
2023/05/25 02:42:59;;;;;;;5.72;1.98;;;;;;;11.54;75.22;102766.81;5096418;27;96718;-29
2023/05/25 02:45:24;;;;;;;3.75;1.80;;;;;;;11.59;74.59;102772.06;5096088;27;98164;-29
2023/05/25 02:47:50;;;;;;;3.60;2.20;;;;;;;11.60;75.69;102772.00;5095746;27;99161;-28
2023/05/25 02:50:15;;;;;;;2.83;1.42;;;;;;;11.60;75.13;102760.25;5096099;27;97721;-28
2023/05/25 02:52:41;;;;;;;4.20;1.48;;;;;;;11.59;75.61;102766.66;5095909;27;97697;-28
2023/05/25 02:55:09;;;;;;;4.68;1.75;;;;;;;11.59;76.30;102761.22;5095991;27;97916;-29
2023/05/25 02:57:35;;;;;;;7.07;1.75;;;;;;;11.59;76.08;102767.53;5077503;27;100724;-29
2023/05/25 03:00:01;;;;;;;6.07;2.10;;;;;;;11.56;76.44;102755.88;5077222;27;96566;-28
2023/05/25 03:02:27;;;;;;;3.58;1.88;;;;;;;11.52;76.81;102770.50;5096173;27;96886;-29
2023/05/25 03:04:53;;;;;;;3.45;1.75;;;;;;;11.58;76.94;102775.72;5095332;27;97890;-28
2023/05/25 03:07:20;;;;;;;5.85;2.10;;;;;;;11.55;76.25;102775.84;5095538;27;98896;-28
2023/05/25 03:09:45;;;;;;;4.38;1.83;;;;;;;11.53;76.96;102772.28;5077467;27;96693;-29
2023/05/25 03:12:11;;;;;;;6.95;2.30;;;;;;;11.58;76.88;102783.84;5095970;27;96785;-28
2023/05/25 03:14:36;;;;;;;3.20;1.77;;;;;;;11.52;76.53;102776.81;5095436;27;99520;-29
2023/05/25 03:17:01;;;;;;;4.05;2.03;;;;;;;11.47;76.19;102787.84;5095640;27;97205;-30
2023/05/25 03:19:27;;;;;;;3.72;1.80;;;;;;;11.46;76.36;102788.78;5096235;27;96661;-29
2023/05/25 03:21:52;;;;;;;2.92;1.73;;;;;;;11.44;76.91;102789.75;5096382;27;96768;-29
2023/05/25 03:24:17;;;;;;;5.95;1.73;;;;;;;11.43;77.04;102793.41;5095481;27;97527;-29
2023/05/25 03:26:43;;;;;;;4.72;1.67;;;;;;;11.39;76.96;102792.66;5095503;27;97336;-28
2023/05/25 03:29:08;;;;;;;5.55;1.67;;;;;;;11.36;76.56;102789.13;5095337;27;96623;-28
2023/05/25 03:31:33;;;;;;;2.35;1.50;;;;;;;11.32;77.09;102788.38;5095568;27;99611;-28
2023/05/25 03:33:59;;;;;;;4.80;2.30;;;;;;;11.35;76.93;102798.22;5094473;27;99548;-28
2023/05/25 03:36:27;;;;;;;2.85;1.88;;;;;;;11.31;76.86;102800.13;5095539;27;98788;-29
2023/05/25 03:38:53;;;;;;;3.85;1.73;;;;;;;11.27;76.85;102793.94;5095683;27;96668;-28
2023/05/25 03:41:19;;;;;;;3.92;1.52;;;;;;;11.24;77.36;102804.88;5077143;27;96868;-28
2023/05/25 03:43:44;;;;;;;5.90;1.70;;;;;;;11.18;76.93;102777.09;5076494;27;101560;-28
2023/05/25 03:46:10;;;;;;;4.32;2.28;;;;;;;11.17;77.22;102795.16;5095332;27;101598;-29
2023/05/25 03:48:36;;;;;;;5.00;1.75;;;;;;;11.17;77.23;102788.84;5095271;27;96732;-28
2023/05/25 03:51:02;;;;;;;4.18;1.55;;;;;;;11.15;77.29;102788.00;5077896;27;96982;-29
2023/05/25 03:53:27;;;;;;;4.97;1.90;;;;;;;11.16;77.34;102796.13;5098359;27;97995;-28
2023/05/25 03:55:52;;;;;;;3.63;1.88;;;;;;;11.18;77.27;102796.06;5098708;27;97366;-28
2023/05/25 03:58:18;;;;;;;4.93;2.20;;;;;;;11.19;76.98;102800.56;5098869;27;96521;-28
2023/05/25 04:00:43;;;;;;;3.30;1.80;;;;;;;11.18;77.34;102801.50;5099019;27;96744;-29
2023/05/25 04:03:09;;;;;;;6.18;2.17;;;;;;;11.11;77.18;102789.97;5098657;27;98045;-28
2023/05/25 04:05:35;;;;;;;6.93;2.15;;;;;;;11.16;77.12;102812.38;5098424;27;99051;-28
2023/05/25 04:08:02;;;;;;;4.95;1.90;;;;;;;11.15;77.12;102813.31;5098903;27;96604;-29
2023/05/25 04:10:27;;;;;;;4.25;1.85;;;;;;;11.14;77.05;102805.25;5080536;27;96790;-28
2023/05/25 04:12:55;;;;;;;4.57;1.70;;;;;;;11.13;77.38;102806.16;5098096;27;98183;-28
2023/05/25 04:15:21;;;;;;;5.68;2.30;;;;;;;11.09;77.31;102804.50;5079688;27;100954;-29
2023/05/25 04:17:46;;;;;;;4.68;2.10;;;;;;;11.12;77.26;102820.66;5079454;27;96706;-28
2023/05/25 04:20:12;;;;;;;6.40;2.08;;;;;;;11.13;77.16;102814.28;5098618;27;96742;-29
2023/05/25 04:22:40;;;;;;;2.22;1.40;;;;;;;11.11;76.58;102802.59;5098150;27;97945;-28
2023/05/25 04:25:06;;;;;;;2.63;1.65;;;;;;;11.15;77.31;102818.72;5098166;27;97297;-28
2023/05/25 04:27:32;;;;;;;4.13;2.15;;;;;;;11.16;77.18;102812.38;5098014;27;96626;-28
2023/05/25 04:29:57;;;;;;;3.58;1.90;;;;;;;11.13;77.28;102809.78;5098689;27;96759;-29
2023/05/25 04:32:23;;;;;;;3.00;1.63;;;;;;;11.13;77.17;102820.63;5097555;27;99445;-29
2023/05/25 04:34:49;;;;;;;4.05;1.90;;;;;;;11.13;77.52;102820.63;5097512;27;99169;-28
2023/05/25 04:37:14;;;;;;;4.97;2.08;;;;;;;11.18;76.72;102823.19;5098406;27;96623;-29
2023/05/25 04:39:40;;;;;;;3.92;2.10;;;;;;;11.16;77.29;102833.22;5098641;27;96804;-28
2023/05/25 04:42:05;;;;;;;3.88;1.92;;;;;;;11.11;77.32;102818.88;5097018;27;98913;-28
2023/05/25 04:44:31;;;;;;;4.80;1.90;;;;;;;11.22;76.97;102843.84;5098014;27;97990;-28
2023/05/25 04:46:58;;;;;;;2.28;1.30;;;;;;;11.23;77.83;102840.22;5079671;27;96776;-28
2023/05/25 04:49:25;;;;;;;3.70;1.90;;;;;;;11.22;76.39;102831.16;5098147;27;96759;-28
2023/05/25 04:51:51;;;;;;;3.63;2.15;;;;;;;11.27;77.79;102833.72;5079098;27;101278;-29
2023/05/25 04:54:16;;;;;;;6.57;1.98;;;;;;;11.27;77.33;102840.06;5079001;27;100670;-28
2023/05/25 04:56:42;;;;;;;4.40;1.80;;;;;;;11.27;76.45;102836.44;5097966;27;96666;-29
2023/05/25 04:59:07;;;;;;;3.28;1.77;;;;;;;11.30;77.73;102841.78;5098261;27;96834;-29
2023/05/25 05:01:33;;;;;;;7.32;2.03;;;;;;;11.31;77.38;102829.09;5097618;27;97876;-29
2023/05/25 05:03:58;;;;;;;3.25;1.48;;;;;;;11.31;77.52;102832.69;5097104;27;97988;-28
2023/05/25 05:06:24;;;;;;;5.45;1.83;;;;;;;11.40;77.04;102850.50;5078644;27;96779;-29
2023/05/25 05:08:50;;;;;;;4.43;2.13;;;;;;;11.38;76.55;102855.09;5079165;27;96978;-30
2023/05/25 05:11:15;;;;;;;2.33;1.42;;;;;;;11.40;75.69;102853.22;5097221;27;97907;-28
2023/05/25 05:13:41;;;;;;;6.35;2.05;;;;;;;11.45;76.59;102857.56;5097604;27;97249;-28
2023/05/25 05:16:06;;;;;;;4.43;1.63;;;;;;;11.53;76.17;102859.13;5097630;27;96644;-29
2023/05/25 05:18:32;;;;;;;2.85;1.25;;;;;;;11.54;75.85;102860.91;5097571;27;96837;-29
2023/05/25 05:20:57;;;;;;;2.80;1.67;;;;;;;11.62;75.90;102864.25;5097204;27;99650;-28
2023/05/25 05:23:22;;;;;;;4.18;1.70;;;;;;;11.67;75.92;102863.16;5097657;27;97819;-28
2023/05/25 05:25:48;;;;;;;3.95;1.63;;;;;;;11.71;75.78;102866.66;5097420;27;96752;-28
2023/05/25 05:28:14;;;;;;;4.07;1.73;;;;;;;11.81;75.53;102869.94;5078753;27;96863;-29
2023/05/25 05:30:39;;;;;;;2.25;1.30;;;;;;;11.88;75.05;102869.72;5096748;27;101121;-29
2023/05/25 05:33:05;;;;;;;2.22;1.42;;;;;;;11.94;75.45;102865.91;5096916;27;97901;-29
2023/05/25 05:35:30;;;;;;;6.63;1.80;;;;;;;12.01;75.24;102863.84;5097155;27;96949;-29
2023/05/25 05:37:56;;;;;;;2.55;1.45;;;;;;;12.13;74.86;102867.97;5097407;27;96869;-28
2023/05/25 05:40:21;;;;;;;3.47;1.65;;;;;;;12.20;74.71;102867.69;5096895;27;97883;-29
2023/05/25 05:42:46;;;;;;;2.80;1.50;;;;;;;12.34;74.18;102872.63;5096827;27;99169;-29
2023/05/25 05:45:12;;;;;;;3.90;1.70;;;;;;;12.37;74.23;102874.34;5097038;27;96535;-30
2023/05/25 05:47:37;;;;;;;5.40;1.60;;;;;;;12.44;74.19;102871.34;5097727;27;96837;-28
2023/05/25 05:50:03;;;;;;;5.10;1.92;;;;;;;12.55;73.86;102876.38;5096846;27;98687;-28
2023/05/25 05:52:28;;;;;;;4.15;2.03;;;;;;;12.64;73.22;102880.59;5096841;27;97811;-28
2023/05/25 05:54:53;;;;;;;3.63;1.65;;;;;;;12.66;73.41;102879.59;5096498;27;96496;-28
2023/05/25 05:57:19;;;;;;;4.03;1.80;;;;;;;12.75;73.25;102883.78;5096879;27;96898;-29
2023/05/25 05:59:45;;;;;;;1.95;1.27;;;;;;;12.81;72.96;102897.16;5096707;27;97983;-29
2023/05/25 06:02:10;;;;;;;3.22;1.50;;;;;;;12.87;72.81;102882.41;5096437;27;99151;-28
2023/05/25 06:04:37;;;;;;;3.58;1.00;;;;;;;12.98;72.56;102892.91;5096775;27;96525;-30
2023/05/25 06:07:02;;;;;;;4.97;1.50;;;;;;;13.00;71.90;102883.72;5096656;27;96834;-29
2023/05/25 06:09:28;;;;;;;4.40;1.35;;;;;;;13.16;71.72;102906.69;5096490;27;97406;-29
2023/05/25 06:11:53;;;;;;;2.42;1.10;;;;;;;13.21;71.67;102889.28;5096455;27;99317;-28
2023/05/25 06:14:18;;;;;;;2.78;1.30;;;;;;;13.33;71.30;102897.00;5095760;27;96481;-30
2023/05/25 06:16:43;;;;;;;4.82;1.50;;;;;;;13.46;70.80;102900.97;5096996;27;96842;-29
2023/05/25 06:19:09;;;;;;;5.10;1.65;;;;;;;13.56;71.20;102902.38;5095608;27;99421;-28
2023/05/25 06:21:36;;;;;;;2.50;1.20;;;;;;;13.63;70.68;102904.84;5096209;27;99180;-29
2023/05/25 06:24:01;;;;;;;3.60;1.42;;;;;;;13.70;70.27;102899.06;5096536;27;96710;-28
2023/05/25 06:26:27;;;;;;;2.88;1.17;;;;;;;13.76;69.62;102908.84;5096485;27;96914;-29
2023/05/25 06:28:52;;;;;;;2.95;1.17;;;;;;;13.76;69.62;102895.22;5096390;27;97014;-28
2023/05/25 06:31:17;;;;;;;2.88;1.25;;;;;;;13.83;69.15;102899.47;5095830;27;99578;-28
2023/05/25 06:33:43;;;;;;;4.28;1.42;;;;;;;13.91;69.25;102900.00;5096054;27;96574;-28
2023/05/25 06:36:09;;;;;;;2.15;1.02;;;;;;;13.93;69.09;102897.22;5078290;27;96776;-28
2023/05/25 06:38:35;;;;;;;4.05;1.13;;;;;;;14.08;68.82;102909.28;5077146;27;101589;-28
2023/05/25 06:41:02;;;;;;;2.05;1.33;;;;;;;14.21;68.72;102899.66;5095798;27;99114;-28
2023/05/25 06:43:28;;;;;;;1.75;0.88;;;;;;;14.27;67.65;102899.34;5095797;27;96518;-29
2023/05/25 06:45:53;;;;;;;2.88;1.10;;;;;;;14.34;67.60;102908.16;5096290;27;96806;-29
2023/05/25 06:48:19;;;;;;;2.13;0.90;;;;;;;14.50;67.61;102911.97;5096124;27;97981;-29
2023/05/25 06:50:45;;;;;;;2.90;1.08;;;;;;;14.63;67.69;102902.31;5095723;27;99154;-29
2023/05/25 06:53:14;;;;;;;7.43;1.48;;;;;;;14.90;66.98;102922.91;5077354;27;96744;-29
2023/05/25 06:55:40;;;;;;;1.58;1.10;;;;;;;14.96;66.11;102917.19;5095814;27;96839;-29
2023/05/25 06:58:05;;;;;;;5.05;1.52;;;;;;;15.04;66.08;102923.16;5095804;27;99337;-28
2023/05/25 07:00:31;;;;;;;5.38;1.27;;;;;;;15.14;65.62;102924.50;5077634;27;97883;-29
2023/05/25 07:03:00;;;;;;;1.88;0.93;;;;;;;15.16;65.53;102927.16;5077598;27;96665;-30
2023/05/25 07:05:25;;;;;;;5.57;1.50;;;;;;;14.95;65.92;102929.06;5077526;27;96893;-29
2023/05/25 07:07:51;;;;;;;1.48;0.88;;;;;;;14.82;65.97;102937.81;5076246;27;99600;-28
2023/05/25 07:10:16;;;;;;;3.22;1.67;;;;;;;14.69;66.80;102938.47;5095724;27;97818;-28
2023/05/25 07:12:41;;;;;;;1.98;1.40;;;;;;;14.54;66.89;102942.75;5095871;27;96635;-28
2023/05/25 07:15:07;;;;;;;2.70;1.33;;;;;;;14.47;67.15;102952.09;5096421;27;96891;-28
2023/05/25 07:17:35;;;;;;;3.25;1.15;;;;;;;14.55;66.86;102942.69;5076910;27;101291;-28
2023/05/25 07:20:00;;;;;;;3.33;1.42;;;;;;;14.42;67.09;102947.78;5076910;27;101091;-29
2023/05/25 07:22:26;;;;;;;2.35;1.50;;;;;;;14.30;67.58;102952.84;5095744;27;96645;-28
2023/05/25 07:24:51;;;;;;;3.70;1.33;;;;;;;14.24;67.59;102954.91;5096396;27;96805;-29
2023/05/25 07:27:18;;;;;;;2.63;1.30;;;;;;;14.18;68.02;102960.63;5098707;27;97928;-29
2023/05/25 07:29:43;;;;;;;3.28;1.10;;;;;;;14.24;68.14;102943.13;5080445;27;100954;-29
2023/05/25 07:32:09;;;;;;;2.05;1.02;;;;;;;14.34;67.64;102952.66;5098621;27;96606;-28
2023/05/25 07:34:34;;;;;;;2.28;0.85;;;;;;;14.51;67.53;102948.31;5098842;27;96814;-30
2023/05/25 07:37:00;;;;;;;2.03;1.15;;;;;;;14.78;66.57;102955.28;5098738;27;99322;-28
2023/05/25 07:39:25;;;;;;;1.60;1.00;;;;;;;14.72;66.34;102952.81;5098894;27;99135;-29
2023/05/25 07:41:51;;;;;;;2.78;1.40;;;;;;;15.06;65.56;102956.72;5099046;27;96504;-28
2023/05/25 07:44:16;;;;;;;2.40;1.25;;;;;;;15.34;64.73;102959.03;5099205;27;96776;-28
2023/05/25 07:46:42;;;;;;;2.22;1.13;;;;;;;15.51;64.48;102959.09;5098932;27;97379;-29
2023/05/25 07:49:14;;;;;;;3.33;1.15;;;;;;;15.78;63.55;102955.13;5099347;27;97939;-28
2023/05/25 07:51:40;;;;;;;1.98;0.93;;;;;;;15.80;63.21;102961.41;5080140;27;96689;-28
2023/05/25 07:54:05;;;;;;;2.42;1.00;;;;;;;15.77;63.35;102969.78;5099261;27;96842;-28
2023/05/25 07:56:30;;;;;;;3.10;1.45;;;;;;;15.47;63.56;102971.16;5098179;27;97884;-28
2023/05/25 07:58:56;;;;;;;4.40;1.30;;;;;;;15.31;64.58;102978.31;5098583;27;104805;-29
2023/05/25 08:01:23;;;;;;;2.67;1.38;;;;;;;15.24;64.60;102969.53;5099041;27;96627;-29
2023/05/25 08:03:48;;;;;;;2.83;1.05;;;;;;;15.15;65.51;102969.94;5098611;27;96790;-28
2023/05/25 08:06:13;;;;;;;3.03;1.15;;;;;;;15.21;65.27;102969.69;5098159;27;99220;-29
2023/05/25 08:08:40;;;;;;;3.00;1.52;;;;;;;15.34;65.23;102969.97;5098331;27;99812;-28
2023/05/25 08:11:06;;;;;;;2.17;1.15;;;;;;;15.62;64.80;102979.56;5098782;27;96564;-28
2023/05/25 08:13:31;;;;;;;2.33;1.17;;;;;;;15.98;64.17;102976.00;5099075;27;96786;-29
2023/05/25 08:15:56;;;;;;;4.03;1.40;;;;;;;15.95;63.16;102981.66;5098538;27;97917;-29
2023/05/25 08:18:22;;;;;;;4.70;1.50;;;;;;;15.97;63.58;102985.16;5098152;27;104427;-28
2023/05/25 08:20:47;;;;;;;3.85;1.38;;;;;;;15.88;63.44;102990.13;5098113;27;96626;-28
2023/05/25 08:23:12;;;;;;;3.47;1.20;;;;;;;15.66;63.74;102981.16;5098604;27;96866;-29
2023/05/25 08:25:38;;;;;;;2.40;1.10;;;;;;;15.64;64.18;102989.47;5098254;27;98032;-28
2023/05/25 08:28:03;;;;;;;3.47;1.42;;;;;;;15.71;63.88;102990.97;5098417;27;97803;-28
2023/05/25 08:30:29;;;;;;;3.17;1.25;;;;;;;16.05;63.37;102991.16;5098670;27;96540;-29
2023/05/25 08:32:54;;;;;;;2.22;0.95;;;;;;;16.33;62.94;102980.56;5079768;27;96915;-28
2023/05/25 08:35:20;;;;;;;3.22;1.20;;;;;;;16.64;61.83;102994.50;5097224;27;99445;-28
2023/05/25 08:37:45;;;;;;;3.15;1.38;;;;;;;16.79;61.66;102992.84;5097509;27;97766;-28
2023/05/25 08:40:15;;;;;;;4.05;1.48;;;;;;;16.90;61.37;102991.28;5098220;27;96647;-29
2023/05/25 08:42:43;;;;;;;1.58;0.98;;;;;;;16.97;60.85;102986.34;5079612;27;96946;-29
2023/05/25 08:45:09;;;;;;;2.55;1.23;;;;;;;17.26;60.61;102983.88;5078780;27;101335;-29
2023/05/25 08:47:40;;;;;;;3.65;1.65;;;;;;;17.59;59.79;102998.41;5079228;27;98827;-28
2023/05/25 08:50:08;;;;;;;2.40;1.20;;;;;;;17.61;59.91;102995.56;5079428;27;96657;-29
2023/05/25 08:52:37;;;;;;;6.45;1.48;;;;;;;17.76;59.38;102989.22;5097975;27;96659;-28
2023/05/25 08:55:08;;;;;;;7.43;1.48;;;;;;;17.90;58.71;102990.28;5079081;27;100896;-28
2023/05/25 08:57:51;;;;;;;7.03;1.30;;;;;;;17.79;58.60;102994.50;5097684;27;99136;-28
2023/05/25 09:00:22;;;;;;;2.13;1.17;;;;;;;17.59;58.72;102998.41;5079177;27;96617;-28
2023/05/25 09:03:06;;;;;;;2.47;1.30;;;;;;;17.35;59.14;102989.72;5079725;27;96702;-29
2023/05/25 09:05:33;;;;;;;1.92;1.02;;;;;;;17.00;59.67;102993.53;5078869;27;101105;-30
2023/05/25 09:07:59;;;;;;;1.77;0.95;;;;;;;16.70;60.07;102997.78;5078758;27;101148;-28
2023/05/25 09:10:26;;;;;;;4.65;1.00;;;;;;;16.52;59.72;102994.19;5097688;27;96586;-29
2023/05/25 09:12:53;;;;;;;4.65;1.40;;;;;;;16.39;61.58;102994.88;5078531;27;96999;-28
2023/05/25 09:15:18;;;;;;;2.17;1.23;;;;;;;16.27;61.25;102994.53;5078615;27;101544;-28
2023/05/25 09:17:44;;;;;;;1.67;1.15;;;;;;;16.12;61.35;103004.41;5097626;27;97667;-29
2023/05/25 09:20:12;;;;;;;2.75;1.02;;;;;;;16.07;61.87;103008.38;5097898;27;96474;-29
2023/05/25 09:22:37;;;;;;;2.38;1.17;;;;;;;15.99;61.40;102995.06;5097409;27;96539;-29
2023/05/25 09:25:06;;;;;;;2.30;1.10;;;;;;;15.98;61.77;103003.34;5097245;27;97558;-29
2023/05/25 09:27:34;;;;;;;2.78;1.30;;;;;;;16.05;61.80;102996.63;5078719;27;101357;-28
2023/05/25 09:30:01;;;;;;;2.15;0.95;;;;;;;16.14;61.23;102998.88;5078847;27;96698;-30
2023/05/25 09:32:26;;;;;;;2.50;0.77;;;;;;;16.12;60.54;103001.69;5078718;27;96830;-28
2023/05/25 09:34:54;;;;;;;1.92;0.85;;;;;;;16.20;60.68;102995.81;5096001;27;99284;-30
2023/05/25 09:37:20;;;;;;;2.03;1.00;;;;;;;16.35;60.45;102991.41;5078463;27;101036;-29
2023/05/25 09:39:46;;;;;;;3.67;1.45;;;;;;;16.58;60.42;102997.53;5078719;27;96480;-29
2023/05/25 09:42:12;;;;;;;2.20;1.08;;;;;;;16.72;60.24;102995.84;5078536;27;96895;-29
2023/05/25 09:44:39;;;;;;;2.20;1.20;;;;;;;16.69;60.18;102993.28;5097015;27;97994;-29
2023/05/25 09:47:05;;;;;;;2.78;0.95;;;;;;;16.61;60.55;102986.44;5078222;27;101051;-28
2023/05/25 09:49:30;;;;;;;3.13;1.05;;;;;;;16.51;60.36;102997.84;5078161;27;96647;-29
2023/05/25 09:51:55;;;;;;;2.67;1.10;;;;;;;16.43;61.04;103005.59;5097347;27;96859;-28
2023/05/25 09:54:21;;;;;;;3.42;1.45;;;;;;;16.42;60.75;102998.38;5096913;27;97933;-29
2023/05/25 09:56:47;;;;;;;1.83;1.00;;;;;;;16.46;61.02;102999.94;5078133;27;100998;-28
2023/05/25 09:59:12;;;;;;;2.70;0.90;;;;;;;16.78;60.11;102997.38;5096317;27;96556;-28
2023/05/25 10:01:38;;;;;;;3.38;1.10;;;;;;;16.83;58.64;102995.31;5097066;27;96778;-28
2023/05/25 10:04:04;;;;;;;1.55;0.88;;;;;;;17.26;58.12;102987.50;5077873;27;101106;-28
2023/05/25 10:06:32;;;;;;;1.75;0.93;;;;;;;17.95;57.65;102989.06;5096487;27;99034;-29
2023/05/25 10:08:58;;;;;;;2.95;0.77;;;;;;;18.48;56.27;102988.69;5078190;27;96667;-29
2023/05/25 10:11:25;;;;;;;1.95;0.95;;;;;;;18.48;54.95;102984.09;5097299;27;96814;-29
2023/05/25 10:13:53;;;;;;;6.65;1.25;;;;;;;18.27;56.03;102986.25;5096271;27;99337;-28
2023/05/25 10:16:24;;;;;;;2.22;1.00;;;;;;;17.82;54.93;102979.78;5078094;27;100842;-29
2023/05/25 10:19:00;;;;;;;2.13;0.98;;;;;;;17.75;55.96;102989.31;5078296;27;96650;-28
2023/05/25 10:21:29;;;;;;;1.65;0.75;;;;;;;18.23;55.26;102985.59;5077982;27;96743;-29
2023/05/25 10:24:03;;;;;;;4.70;1.17;;;;;;;18.74;54.72;102989.84;5095488;27;99323;-29
2023/05/25 10:26:34;;;;;;;1.45;0.93;;;;;;;19.14;54.03;102976.34;5074971;27;100898;-28
2023/05/25 10:29:03;;;;;;;1.87;1.20;;;;;;;19.41;53.13;102977.34;5076096;27;96989;-28
2023/05/25 10:31:28;;;;;;;2.03;1.15;;;;;;;19.77;51.60;102988.81;5076469;27;97050;-29
2023/05/25 10:33:55;;;;;;;2.40;1.02;;;;;;;19.87;50.61;102979.81;5095431;27;99625;-28
2023/05/25 10:36:22;;;;;;;4.32;1.20;;;;;;;20.06;50.09;102992.34;5077513;27;100781;-26
2023/05/25 10:38:50;;;;;;;3.53;1.13;;;;;;;20.17;49.66;102986.13;5078004;27;96641;-26
2023/05/25 10:41:19;;;;;;;2.15;0.85;;;;;;;20.36;50.12;102993.00;5078100;27;96856;-26
2023/05/25 10:43:45;;;;;;;2.63;0.90;;;;;;;20.34;47.52;102983.97;5095691;27;99077;-26
2023/05/25 10:46:11;;;;;;;2.92;1.05;;;;;;;19.73;48.80;102982.59;5077386;27;100867;-26
2023/05/25 10:48:48;;;;;;;3.42;1.38;;;;;;;19.53;48.48;102986.66;5077101;27;96652;-26
2023/05/25 10:51:13;;;;;;;2.70;0.90;;;;;;;19.30;50.08;102990.88;5095994;27;96840;-26
2023/05/25 10:53:46;;;;;;;1.55;0.75;;;;;;;19.12;50.84;102992.09;5096085;27;97954;-26
2023/05/25 10:56:13;;;;;;;2.53;0.95;;;;;;;18.93;51.47;102987.75;5077231;27;101495;-26
2023/05/25 10:58:45;;;;;;;2.15;0.93;;;;;;;18.79;51.54;102991.34;5096040;27;96487;-26
2023/05/25 11:01:12;;;;;;;2.17;0.88;;;;;;;18.63;52.54;102998.72;5076661;27;96946;-26
2023/05/25 11:03:43;;;;;;;1.98;1.10;;;;;;;18.50;51.03;103000.47;5077097;27;101199;-26
2023/05/25 11:06:16;;;;;;;2.92;1.02;;;;;;;18.31;52.69;102992.47;5096304;27;97794;-26
2023/05/25 11:08:53;;;;;;;2.80;1.10;;;;;;;18.24;52.50;102991.94;5096064;27;96557;-26
2023/05/25 11:11:18;;;;;;;4.93;0.95;;;;;;;18.13;53.44;102980.72;5096347;27;96786;-26
2023/05/25 11:13:48;;;;;;;3.25;1.38;;;;;;;18.13;53.41;102987.09;5094940;27;97932;-26
2023/05/25 11:16:26;;;;;;;3.60;1.00;;;;;;;18.46;52.18;102991.53;5076989;27;101193;-26
2023/05/25 11:18:59;;;;;;;3.33;1.33;;;;;;;18.75;52.86;102986.09;5095855;27;96636;-26
2023/05/25 11:21:25;;;;;;;3.72;1.20;;;;;;;18.79;52.07;102991.34;5077328;27;96730;-26
2023/05/25 11:24:01;;;;;;;1.45;0.77;;;;;;;18.68;52.27;102989.22;5095367;27;99309;-26